Time;durP1;ratioP1;P1;durP2;ratioP2;P2;SDS_P1;SDS_P2;PMS_P1;PMS_P2;Temp;Humidity;BMP_temperature;BMP_pressure;BME280_temperature;BME280_humidity;BME280_pressure;Samples;Min_cycle;Max_cycle;Signal;HPM_P1;HPM_P2
2021/12/16 00:01:51;;;;;;;27.92;13.45;;;11.00;90.50;;;;;;4946673;28;20054;-65
2021/12/16 00:10:00;;;;;;;21.65;11.25;;;10.90;90.20;;;;;;4954907;28;19918;-65
2021/12/16 00:32:04;;;;;;;28.80;14.55;;;10.90;90.50;;;;;;4950245;28;20471;-66
2021/12/16 00:34:32;;;;;;;24.88;13.73;;;10.90;90.40;;;;;;4968965;28;20046;-66
2021/12/16 00:36:59;;;;;;;32.28;13.93;;;11.00;90.20;;;;;;4968949;28;20170;-66
2021/12/16 00:39:30;;;;;;;27.83;15.05;;;10.90;90.20;;;;;;4944347;28;20643;-66
2021/12/16 00:42:03;;;;;;;32.42;14.40;;;10.90;90.20;;;;;;4966359;28;20043;-66
2021/12/16 00:47:14;;;;;;;31.45;14.20;;;10.90;90.30;;;;;;4966460;28;20038;-65
2021/12/16 00:49:46;;;;;;;26.67;13.23;;;10.90;90.20;;;;;;4936855;28;20406;-66
2021/12/16 00:55:18;;;;;;;35.17;14.32;;;10.90;90.00;;;;;;4957152;28;20031;-66
2021/12/16 00:57:45;;;;;;;27.55;13.30;;;10.90;90.10;;;;;;4970481;28;20801;-66
2021/12/16 01:00:15;;;;;;;27.38;12.98;;;10.80;90.10;;;;;;4931197;28;20047;-66
2021/12/16 01:05:44;;;;;;;28.83;13.43;;;10.80;89.70;;;;;;4959650;28;20054;-65
2021/12/16 01:50:02;;;;;;;28.33;12.45;;;10.70;89.40;;;;;;4969731;28;20038;-67
2021/12/16 01:52:49;;;;;;;25.45;10.88;;;10.80;89.50;;;;;;4964502;28;20086;-67
2021/12/16 01:55:37;;;;;;;27.65;11.73;;;10.80;89.50;;;;;;4948117;28;20533;-67
2021/12/16 01:58:13;;;;;;;24.23;11.82;;;10.80;88.90;;;;;;4960724;28;20090;-67
2021/12/16 02:00:56;;;;;;;19.20;10.57;;;10.80;89.00;;;;;;4934605;28;20728;-67
2021/12/16 02:03:38;;;;;;;24.15;11.27;;;10.90;89.10;;;;;;4954793;28;20074;-67
2021/12/16 02:06:25;;;;;;;22.42;10.38;;;10.80;89.10;;;;;;4952331;28;20027;-68
2021/12/16 02:08:54;;;;;;;18.38;9.40;;;10.80;89.10;;;;;;4950676;28;20062;-68
2021/12/16 02:27:50;;;;;;;15.18;8.10;;;10.80;88.80;;;;;;4967499;28;20046;-68
2021/12/16 02:35:43;;;;;;;16.15;8.57;;;10.90;88.20;;;;;;4966421;28;20047;-68
2021/12/16 02:38:13;;;;;;;20.45;8.77;;;10.80;88.30;;;;;;4965440;28;20047;-68
2021/12/16 02:40:40;;;;;;;17.85;7.80;;;10.80;88.10;;;;;;4962867;28;20035;-68
2021/12/16 02:48:32;;;;;;;11.82;6.78;;;10.80;88.10;;;;;;4964591;28;20039;-68
2021/12/16 02:51:15;;;;;;;15.70;7.60;;;10.70;88.20;;;;;;4962284;28;20175;-68
2021/12/16 02:53:44;;;;;;;16.42;8.30;;;10.80;88.20;;;;;;4958416;28;20039;-68
2021/12/16 02:56:10;;;;;;;14.50;7.35;;;10.80;88.30;;;;;;4941780;28;20035;-68
2021/12/16 02:58:39;;;;;;;15.98;7.32;;;10.80;88.10;;;;;;4967366;28;20042;-68
2021/12/16 03:01:13;;;;;;;14.15;7.22;;;10.70;88.30;;;;;;4945708;28;20027;-68
2021/12/16 03:03:40;;;;;;;14.40;6.97;;;10.70;88.00;;;;;;4968454;28;20038;-68
2021/12/16 03:06:08;;;;;;;13.50;6.40;;;10.70;88.30;;;;;;4944199;28;20504;-68
2021/12/16 03:08:35;;;;;;;14.23;7.10;;;10.70;88.30;;;;;;4945417;28;20488;-68
2021/12/16 03:11:17;;;;;;;15.88;6.95;;;10.70;88.20;;;;;;4971738;28;20022;-68
2021/12/16 03:14:22;;;;;;;11.82;6.88;;;10.70;88.00;;;;;;4949483;28;20109;-68
2021/12/16 03:16:47;;;;;;;9.95;5.63;;;10.70;88.00;;;;;;4952524;28;20058;-68
2021/12/16 03:19:48;;;;;;;15.38;6.05;;;10.70;88.00;;;;;;4959083;28;20134;-68
2021/12/16 03:22:03;;;;;;;11.68;5.82;;;10.70;88.00;;;;;;4955750;28;20502;-69
2021/12/16 03:35:14;;;;;;;10.35;4.70;;;10.70;88.10;;;;;;4960520;28;20034;-68
2021/12/16 03:37:40;;;;;;;9.85;4.50;;;10.70;88.10;;;;;;4967436;28;20230;-68
2021/12/16 03:40:08;;;;;;;12.18;5.35;;;10.70;88.20;;;;;;4946914;28;20031;-68
2021/12/16 03:42:36;;;;;;;9.88;4.90;;;10.80;88.10;;;;;;4965936;28;20054;-68
2021/12/16 03:48:23;;;;;;;6.73;4.10;;;10.80;88.20;;;;;;4961263;28;20109;-68
2021/12/16 03:50:49;;;;;;;8.13;4.28;;;10.70;88.10;;;;;;4944798;28;20386;-68
2021/12/16 03:53:18;;;;;;;8.23;4.63;;;10.70;88.10;;;;;;4963910;28;20049;-68
2021/12/16 03:55:46;;;;;;;7.72;4.60;;;10.70;87.90;;;;;;4950285;28;20035;-68
2021/12/16 03:58:14;;;;;;;11.75;5.15;;;10.80;87.70;;;;;;4931478;28;21036;-68
2021/12/16 04:01:04;;;;;;;10.35;4.90;;;10.80;87.60;;;;;;4957729;28;20737;-68
2021/12/16 04:03:30;;;;;;;8.93;4.75;;;10.80;87.30;;;;;;4955952;28;20066;-68
2021/12/16 04:05:58;;;;;;;8.00;4.43;;;10.80;87.20;;;;;;4968270;28;20042;-68
2021/12/16 04:08:24;;;;;;;12.07;5.25;;;10.70;87.10;;;;;;4966452;28;20766;-68
2021/12/16 04:11:04;;;;;;;7.10;4.05;;;10.70;87.10;;;;;;4969586;28;20131;-68
2021/12/16 04:13:59;;;;;;;8.48;4.38;;;10.70;87.30;;;;;;4936950;28;20131;-68
2021/12/16 04:16:36;;;;;;;11.82;5.05;;;10.70;87.70;;;;;;4966159;28;20023;-68
2021/12/16 04:19:10;;;;;;;15.80;4.90;;;10.70;87.40;;;;;;4963294;28;20027;-68
2021/12/16 04:21:38;;;;;;;8.23;4.20;;;10.70;87.70;;;;;;4940549;28;20907;-68
2021/12/16 04:24:05;;;;;;;8.93;5.00;;;10.70;87.70;;;;;;4966093;28;20054;-67
2021/12/16 04:26:32;;;;;;;8.45;4.75;;;10.60;87.70;;;;;;4958963;28;20031;-67
2021/12/16 04:28:58;;;;;;;10.40;4.85;;;10.70;88.00;;;;;;4963115;28;20153;-67
2021/12/16 04:31:25;;;;;;;8.15;4.32;;;10.70;88.20;;;;;;4944607;28;20046;-67
2021/12/16 04:33:51;;;;;;;8.65;5.18;;;10.70;88.40;;;;;;4965180;28;20038;-67
2021/12/16 04:36:19;;;;;;;12.13;5.43;;;10.70;88.60;;;;;;4951257;28;20039;-67
2021/12/16 04:38:46;;;;;;;11.10;5.90;;;10.60;89.00;;;;;;4932549;28;20134;-67
2021/12/16 04:41:14;;;;;;;10.90;5.85;;;10.60;89.10;;;;;;4926730;28;20659;-68
2021/12/16 04:43:48;;;;;;;10.70;6.18;;;10.60;89.00;;;;;;4963730;28;20041;-67
2021/12/16 04:46:21;;;;;;;9.77;5.93;;;10.60;88.90;;;;;;4962523;28;20031;-67
2021/12/16 04:48:51;;;;;;;8.93;5.43;;;10.70;89.30;;;;;;4967288;28;20038;-68
2021/12/16 04:51:27;;;;;;;10.23;5.88;;;10.70;88.90;;;;;;4953555;28;20027;-67
2021/12/16 04:53:54;;;;;;;12.50;5.95;;;10.70;88.80;;;;;;4965977;28;20794;-67
2021/12/16 04:56:20;;;;;;;10.25;6.72;;;10.70;88.80;;;;;;4965285;28;20031;-69
2021/12/16 04:59:11;;;;;;;12.80;6.30;;;10.70;89.00;;;;;;4946314;28;20837;-67
2021/12/16 05:01:41;;;;;;;10.35;5.60;;;10.60;88.70;;;;;;4960170;28;20099;-67
2021/12/16 05:04:08;;;;;;;12.63;6.20;;;10.60;88.40;;;;;;4953517;28;20033;-67
2021/12/16 05:06:34;;;;;;;8.18;5.30;;;10.60;88.60;;;;;;4966740;28;20062;-67
2021/12/16 05:09:00;;;;;;;10.50;6.22;;;10.60;88.60;;;;;;4954794;28;20018;-67
2021/12/16 05:11:36;;;;;;;10.25;6.10;;;10.50;89.10;;;;;;4962813;28;20035;-67
2021/12/16 05:14:06;;;;;;;12.02;5.93;;;10.50;89.30;;;;;;4963113;28;20574;-69
2021/12/16 05:16:33;;;;;;;11.23;5.95;;;10.50;89.50;;;;;;4966021;28;20039;-67
2021/12/16 05:18:59;;;;;;;11.93;6.30;;;10.40;90.00;;;;;;4970082;28;20089;-68
2021/12/16 05:24:26;;;;;;;14.82;7.70;;;10.50;90.50;;;;;;4965228;28;20031;-69
2021/12/16 05:26:59;;;;;;;16.05;7.28;;;10.40;90.70;;;;;;4959669;28;20503;-69
2021/12/16 05:29:25;;;;;;;13.48;6.85;;;10.40;91.00;;;;;;4932186;28;20557;-69
2021/12/16 05:31:53;;;;;;;16.35;8.27;;;10.30;91.20;;;;;;4968603;28;20692;-69
2021/12/16 05:34:20;;;;;;;11.20;6.63;;;10.30;91.60;;;;;;4950594;28;20870;-69
2021/12/16 05:36:47;;;;;;;13.57;7.47;;;10.20;91.60;;;;;;4952892;28;20040;-69
2021/12/16 05:39:15;;;;;;;14.07;7.65;;;10.20;91.80;;;;;;4943849;28;20059;-69
2021/12/16 05:41:48;;;;;;;15.05;7.03;;;10.20;92.00;;;;;;4959481;28;20178;-69
2021/12/16 05:44:16;;;;;;;13.68;7.63;;;10.20;92.20;;;;;;4954976;28;20031;-69
2021/12/16 05:46:42;;;;;;;14.02;7.28;;;10.20;92.30;;;;;;4966719;28;20042;-69
2021/12/16 05:49:10;;;;;;;14.25;7.20;;;10.10;92.30;;;;;;4951234;28;20648;-69
2021/12/16 05:51:54;;;;;;;16.27;8.10;;;10.10;92.30;;;;;;4945803;28;20100;-69
2021/12/16 05:54:21;;;;;;;18.80;9.05;;;10.10;92.30;;;;;;4963457;28;20047;-69
2021/12/16 05:57:04;;;;;;;19.92;8.68;;;10.10;92.40;;;;;;4967428;28;20026;-69
2021/12/16 05:59:30;;;;;;;13.52;7.65;;;10.10;92.40;;;;;;4942157;28;20117;-69
2021/12/16 06:01:55;;;;;;;15.80;7.55;;;10.10;92.60;;;;;;4967676;28;20155;-69
2021/12/16 06:04:30;;;;;;;15.18;7.43;;;10.10;92.70;;;;;;4945092;28;20027;-69
2021/12/16 06:07:04;;;;;;;15.25;7.13;;;10.10;92.70;;;;;;4962421;28;20030;-69
2021/12/16 06:09:30;;;;;;;15.85;7.32;;;10.10;92.80;;;;;;4964374;28;20041;-68
2021/12/16 06:11:56;;;;;;;11.90;7.07;;;10.10;92.80;;;;;;4958777;28;20034;-68
2021/12/16 06:27:54;;;;;;;18.90;7.90;;;10.10;92.90;;;;;;4969183;28;20042;-69
2021/12/16 06:30:25;;;;;;;17.55;8.60;;;10.10;93.20;;;;;;4955227;28;20695;-68
2021/12/16 06:32:52;;;;;;;20.13;9.18;;;10.00;92.80;;;;;;4948383;28;20077;-68
2021/12/16 06:35:18;;;;;;;18.95;8.60;;;10.00;93.00;;;;;;4950022;28;20042;-68
2021/12/16 06:37:44;;;;;;;18.08;7.53;;;10.00;93.10;;;;;;4942687;28;20039;-68
2021/12/16 06:40:19;;;;;;;21.77;9.73;;;10.00;93.00;;;;;;4952806;28;20411;-68
2021/12/16 06:43:10;;;;;;;17.58;8.90;;;10.10;93.10;;;;;;4956456;28;20500;-68
2021/12/16 06:45:40;;;;;;;25.00;10.20;;;10.10;93.00;;;;;;4970196;28;20085;-68
2021/12/16 06:48:12;;;;;;;18.63;8.68;;;10.00;93.00;;;;;;4952688;28;20026;-68
2021/12/16 06:53:10;;;;;;;18.50;8.55;;;10.10;93.00;;;;;;4954825;28;20043;-68
2021/12/16 06:55:43;;;;;;;16.73;8.85;;;10.10;93.10;;;;;;4956239;28;20282;-69
2021/12/16 06:58:17;;;;;;;19.13;8.68;;;10.10;93.00;;;;;;4969048;28;20396;-68
2021/12/16 07:00:47;;;;;;;16.75;8.70;;;10.10;93.00;;;;;;4946754;28;20055;-68
2021/12/16 07:03:19;;;;;;;21.48;9.10;;;10.10;93.00;;;;;;4966064;28;20722;-68
2021/12/16 07:05:47;;;;;;;22.42;8.95;;;10.10;93.00;;;;;;4956365;28;20031;-69
2021/12/16 07:08:17;;;;;;;23.10;8.77;;;10.10;93.10;;;;;;4960480;28;20031;-68
2021/12/16 07:10:49;;;;;;;21.08;8.98;;;10.10;93.10;;;;;;4958029;28;20113;-68
2021/12/16 07:13:29;;;;;;;18.80;8.65;;;10.10;93.10;;;;;;4955503;28;20117;-68
2021/12/16 07:15:57;;;;;;;18.70;9.68;;;10.10;93.10;;;;;;4956635;28;20034;-68
2021/12/16 07:18:23;;;;;;;15.93;8.55;;;10.10;93.00;;;;;;4951887;28;20596;-68
2021/12/16 07:20:48;;;;;;;18.75;8.05;;;10.10;93.00;;;;;;4948930;28;20034;-69
2021/12/16 07:23:15;;;;;;;17.70;9.23;;;10.10;93.00;;;;;;4955972;28;20037;-68
2021/12/16 07:25:41;;;;;;;19.00;8.82;;;10.20;93.10;;;;;;4951420;28;20030;-69
2021/12/16 07:28:07;;;;;;;20.45;10.00;;;10.20;93.00;;;;;;4952562;28;20783;-69
2021/12/16 07:30:41;;;;;;;16.05;8.43;;;10.20;92.90;;;;;;4948091;28;20042;-68
2021/12/16 07:33:09;;;;;;;18.65;8.55;;;10.20;92.90;;;;;;4946706;28;20034;-68
2021/12/16 07:35:36;;;;;;;16.10;9.27;;;10.20;92.90;;;;;;4954251;28;20050;-69
2021/12/16 07:38:02;;;;;;;21.20;10.48;;;10.20;93.00;;;;;;4952457;28;20046;-68
2021/12/16 07:40:30;;;;;;;18.77;10.18;;;10.10;93.00;;;;;;4963458;28;20671;-69
2021/12/16 07:43:11;;;;;;;21.60;10.98;;;10.20;93.10;;;;;;4966091;28;20058;-68
2021/12/16 07:45:43;;;;;;;23.70;9.52;;;10.20;93.10;;;;;;4943389;28;20038;-68
2021/12/16 07:48:12;;;;;;;20.08;10.27;;;10.20;93.30;;;;;;4955914;28;20086;-69
2021/12/16 07:50:41;;;;;;;22.80;10.13;;;10.20;93.00;;;;;;4952139;28;20031;-69
2021/12/16 07:53:07;;;;;;;19.90;10.00;;;10.20;93.00;;;;;;4946874;28;20666;-69
2021/12/16 07:55:34;;;;;;;17.17;9.18;;;10.20;93.00;;;;;;4954763;28;20035;-69
2021/12/16 07:58:00;;;;;;;17.42;10.07;;;10.20;93.10;;;;;;4951556;28;20478;-69
2021/12/16 08:00:32;;;;;;;21.65;9.85;;;10.30;93.00;;;;;;4949968;28;20046;-69
2021/12/16 08:02:58;;;;;;;19.33;10.50;;;10.30;92.80;;;;;;4949463;28;20190;-69
2021/12/16 08:05:25;;;;;;;19.65;9.80;;;10.30;92.90;;;;;;4952739;28;20487;-69
2021/12/16 08:07:52;;;;;;;18.75;11.10;;;10.30;92.90;;;;;;4948885;28;20030;-69
2021/12/16 08:10:20;;;;;;;22.92;10.35;;;10.30;92.80;;;;;;4954931;28;20073;-69
2021/12/16 08:12:46;;;;;;;18.65;10.00;;;10.30;92.80;;;;;;4948604;28;20886;-69
2021/12/16 08:15:14;;;;;;;27.17;10.68;;;10.40;92.90;;;;;;4943750;28;20031;-68
2021/12/16 08:17:40;;;;;;;27.95;11.95;;;10.30;92.90;;;;;;4951636;28;20038;-69
2021/12/16 08:20:07;;;;;;;29.20;13.25;;;10.30;93.00;;;;;;4953087;28;20030;-69
2021/12/16 08:22:33;;;;;;;22.92;11.02;;;10.30;93.00;;;;;;4948327;28;20556;-69
2021/12/16 08:24:59;;;;;;;20.75;10.70;;;10.40;93.00;;;;;;4959411;28;20042;-69
2021/12/16 08:27:25;;;;;;;19.85;10.05;;;10.40;93.00;;;;;;4947568;28;20542;-68
2021/12/16 08:29:50;;;;;;;22.98;11.00;;;10.40;93.10;;;;;;4953880;28;20024;-68
2021/12/16 08:32:16;;;;;;;20.08;9.93;;;10.40;93.10;;;;;;4960522;28;20034;-68
2021/12/16 08:34:45;;;;;;;19.02;10.20;;;10.40;93.10;;;;;;4968424;28;20586;-68
2021/12/16 08:37:13;;;;;;;24.45;10.57;;;10.40;93.10;;;;;;4958764;28;20419;-68
2021/12/16 08:39:40;;;;;;;24.90;11.00;;;10.50;93.10;;;;;;4976671;28;20045;-68
2021/12/16 08:42:12;;;;;;;20.17;9.23;;;10.50;93.10;;;;;;4957528;28;20555;-69
2021/12/16 08:44:38;;;;;;;23.65;11.65;;;10.50;93.10;;;;;;4949377;28;20043;-68
2021/12/16 08:47:09;;;;;;;24.00;11.73;;;10.50;92.80;;;;;;4956647;28;20380;-67
2021/12/16 08:49:35;;;;;;;24.65;11.73;;;10.50;92.90;;;;;;4968747;28;20476;-67
2021/12/16 08:52:08;;;;;;;24.58;10.95;;;10.60;93.00;;;;;;4958683;28;20487;-67
2021/12/16 08:54:34;;;;;;;18.90;10.50;;;10.60;93.00;;;;;;4961800;28;20117;-67
2021/12/16 08:57:00;;;;;;;24.33;11.10;;;10.60;93.10;;;;;;4955618;28;20038;-67
2021/12/16 08:59:26;;;;;;;18.30;9.95;;;10.70;93.00;;;;;;4974877;28;20051;-67
2021/12/16 09:01:55;;;;;;;21.40;10.65;;;10.70;92.90;;;;;;4970421;28;20058;-67
2021/12/16 09:04:23;;;;;;;19.33;10.43;;;10.70;92.90;;;;;;4958791;28;20031;-67
2021/12/16 09:06:58;;;;;;;20.60;10.75;;;10.70;92.90;;;;;;4955593;28;20039;-67
2021/12/16 09:09:24;;;;;;;20.17;10.60;;;10.70;92.90;;;;;;4961520;28;20411;-67
2021/12/16 09:12:38;;;;;;;18.88;10.70;;;10.70;92.90;;;;;;4953320;28;20042;-65
2021/12/16 09:14:43;;;;;;;34.88;17.40;;;10.80;92.90;;;;;;4956714;28;20130;-66
2021/12/16 09:17:15;;;;;;;26.67;11.68;;;10.70;92.90;;;;;;4975349;28;20041;-65
2021/12/16 09:19:48;;;;;;;22.77;10.98;;;10.80;93.00;;;;;;4951881;28;20049;-66
2021/12/16 09:22:20;;;;;;;24.70;11.13;;;10.70;92.80;;;;;;4956012;28;20054;-66
2021/12/16 09:24:48;;;;;;;17.75;9.38;;;10.70;92.90;;;;;;4964926;28;20423;-67
2021/12/16 09:27:15;;;;;;;22.65;10.80;;;10.80;92.80;;;;;;4966549;28;20031;-67
2021/12/16 09:29:40;;;;;;;24.58;11.57;;;10.80;92.80;;;;;;4955638;28;20034;-67
2021/12/16 09:32:07;;;;;;;18.25;8.77;;;10.80;92.70;;;;;;4952895;28;20050;-68
2021/12/16 09:34:35;;;;;;;17.02;9.32;;;10.70;92.80;;;;;;4954285;28;20042;-69
2021/12/16 09:37:01;;;;;;;19.60;10.18;;;10.80;93.00;;;;;;4954306;28;20027;-67
2021/12/16 09:39:27;;;;;;;16.52;9.88;;;10.80;93.00;;;;;;4946222;28;20043;-67
2021/12/16 09:41:57;;;;;;;16.73;9.07;;;10.80;92.90;;;;;;4951189;28;20942;-67
2021/12/16 09:44:24;;;;;;;21.65;9.38;;;10.80;92.90;;;;;;4957661;28;20038;-67
2021/12/16 09:46:52;;;;;;;19.63;8.98;;;10.80;92.90;;;;;;4952893;28;20042;-66
2021/12/16 09:49:19;;;;;;;18.27;9.52;;;10.80;93.00;;;;;;4953902;28;20035;-67
2021/12/16 09:51:48;;;;;;;20.02;9.70;;;10.90;92.90;;;;;;4951330;28;20557;-67
2021/12/16 09:54:18;;;;;;;20.50;10.07;;;10.90;92.80;;;;;;4951558;28;20047;-67
2021/12/16 09:56:46;;;;;;;15.52;9.45;;;10.90;92.80;;;;;;4955471;28;20039;-68
2021/12/16 09:59:14;;;;;;;14.43;8.48;;;11.00;92.80;;;;;;4954867;28;20058;-68
2021/12/16 10:01:41;;;;;;;17.65;9.63;;;11.00;92.80;;;;;;4955570;28;20039;-65
2021/12/16 10:04:10;;;;;;;18.00;8.23;;;11.10;92.70;;;;;;4954852;28;20125;-68
2021/12/16 10:06:38;;;;;;;17.77;9.50;;;11.00;92.60;;;;;;4952300;28;20484;-68
2021/12/16 10:09:06;;;;;;;15.25;8.80;;;11.00;92.70;;;;;;4956789;28;20030;-68
2021/12/16 10:11:34;;;;;;;14.85;7.55;;;11.10;92.80;;;;;;4954875;28;20815;-68
2021/12/16 10:14:14;;;;;;;10.85;6.72;;;11.10;92.70;;;;;;4949697;28;20037;-68
2021/12/16 10:19:31;;;;;;;12.38;7.07;;;11.10;92.70;;;;;;4947487;28;20078;-68
2021/12/16 10:22:16;;;;;;;14.57;7.43;;;11.10;92.60;;;;;;4950051;28;20141;-68
2021/12/16 10:24:42;;;;;;;13.10;7.05;;;11.20;92.70;;;;;;4956481;28;20762;-68
2021/12/16 10:27:19;;;;;;;13.60;6.45;;;11.10;92.70;;;;;;4975960;28;20120;-68
2021/12/16 10:29:50;;;;;;;13.35;7.00;;;11.20;92.60;;;;;;4958544;28;20035;-68
2021/12/16 10:32:42;;;;;;;16.55;8.13;;;11.10;92.70;;;;;;4950479;28;20051;-68
2021/12/16 10:35:10;;;;;;;11.02;6.82;;;11.20;92.90;;;;;;4952142;28;20039;-68
2021/12/16 10:37:45;;;;;;;11.80;6.68;;;11.10;92.80;;;;;;4952857;28;20047;-68
2021/12/16 10:40:28;;;;;;;12.82;6.38;;;11.20;92.70;;;;;;4949110;28;20042;-68
2021/12/16 10:42:56;;;;;;;12.75;7.18;;;11.20;92.50;;;;;;4954635;28;20697;-68
2021/12/16 10:45:49;;;;;;;16.98;7.38;;;11.20;92.60;;;;;;4962000;28;20035;-68
2021/12/16 10:48:21;;;;;;;12.15;6.57;;;11.20;92.60;;;;;;4944577;28;20102;-68
2021/12/16 10:50:55;;;;;;;12.68;7.13;;;11.30;92.60;;;;;;4954197;28;20034;-68
2021/12/16 10:53:45;;;;;;;10.80;6.65;;;11.30;92.50;;;;;;4953707;28;20745;-68
2021/12/16 10:56:11;;;;;;;10.55;6.13;;;11.30;92.60;;;;;;4955855;28;20443;-68
2021/12/16 10:59:25;;;;;;;12.52;6.75;;;11.30;92.60;;;;;;4954005;28;20114;-68
2021/12/16 11:02:03;;;;;;;10.43;6.53;;;11.30;92.70;;;;;;4939417;28;20082;-68
2021/12/16 11:04:43;;;;;;;12.23;6.28;;;11.20;92.60;;;;;;4951703;28;20034;-68
2021/12/16 11:07:09;;;;;;;10.23;6.00;;;11.20;92.60;;;;;;4954762;28;20124;-67
2021/12/16 11:09:37;;;;;;;12.32;6.40;;;11.30;92.60;;;;;;4970603;28;20043;-68
2021/12/16 11:12:15;;;;;;;9.23;5.53;;;11.40;92.60;;;;;;4946447;28;20047;-68
2021/12/16 11:14:45;;;;;;;11.02;5.50;;;11.40;92.60;;;;;;4949421;28;20035;-68
2021/12/16 11:17:15;;;;;;;7.50;5.53;;;11.50;92.40;;;;;;4953386;28;20131;-68
2021/12/16 11:19:52;;;;;;;10.82;5.05;;;11.50;92.40;;;;;;4952251;28;20031;-67
2021/12/16 11:22:24;;;;;;;15.27;7.63;;;11.50;92.40;;;;;;4959485;28;20030;-68
2021/12/16 11:24:52;;;;;;;10.38;5.68;;;11.50;92.20;;;;;;4954420;28;20133;-68
2021/12/16 11:27:37;;;;;;;8.88;5.10;;;11.60;92.20;;;;;;4948946;28;20035;-67
2021/12/16 11:30:20;;;;;;;8.02;4.90;;;11.60;92.10;;;;;;4963391;28;20031;-67
2021/12/16 11:32:48;;;;;;;13.05;6.82;;;11.70;91.80;;;;;;4966847;28;20045;-68
2021/12/16 11:35:23;;;;;;;11.07;7.72;;;11.70;91.80;;;;;;4955454;28;20034;-68
2021/12/16 11:37:50;;;;;;;13.55;10.00;;;11.70;91.60;;;;;;4956970;28;20066;-68
2021/12/16 11:40:17;;;;;;;8.55;5.63;;;11.70;91.50;;;;;;4957749;28;20038;-68
2021/12/16 11:42:43;;;;;;;7.38;4.90;;;11.70;91.50;;;;;;4951588;28;20054;-68
2021/12/16 11:45:09;;;;;;;6.40;4.15;;;11.80;91.50;;;;;;4959777;28;20034;-68
2021/12/16 11:47:45;;;;;;;7.50;4.65;;;11.80;91.40;;;;;;4970417;28;20109;-68
2021/12/16 11:50:11;;;;;;;11.43;6.15;;;11.90;91.70;;;;;;4958527;28;20802;-68
2021/12/16 11:52:39;;;;;;;12.70;5.82;;;11.90;91.20;;;;;;4946770;28;20130;-67
2021/12/16 11:55:15;;;;;;;14.65;7.63;;;11.90;91.00;;;;;;4969934;28;20066;-68
2021/12/16 11:57:43;;;;;;;;;;;11.80;90.80;;;;;;4948175;28;20046;-69
2021/12/16 12:00:19;;;;;;;11.75;5.95;;;11.90;90.80;;;;;;4956302;28;20641;-69
2021/12/16 12:03:00;;;;;;;11.43;6.20;;;11.90;90.70;;;;;;4960145;28;20122;-70
2021/12/16 12:05:37;;;;;;;24.63;11.13;;;12.00;90.80;;;;;;4954894;28;20047;-69
2021/12/16 12:08:14;;;;;;;20.52;10.90;;;12.00;90.70;;;;;;4952982;28;20399;-69
2021/12/16 12:11:24;;;;;;;14.07;7.30;;;12.10;90.70;;;;;;4956566;28;20039;-69
2021/12/16 12:13:56;;;;;;;22.73;10.88;;;12.10;90.70;;;;;;4962559;28;20756;-70
2021/12/16 12:16:27;;;;;;;15.95;7.68;;;12.10;90.50;;;;;;4958876;28;20579;-70
2021/12/16 12:19:19;;;;;;;12.07;5.75;;;12.20;90.40;;;;;;4955352;28;20040;-67
2021/12/16 12:21:57;;;;;;;26.70;12.65;;;12.20;89.60;;;;;;4960398;28;20133;-70
2021/12/16 12:24:25;;;;;;;14.82;8.48;;;12.10;90.00;;;;;;4957548;28;20046;-70
2021/12/16 12:26:58;;;;;;;12.05;6.57;;;12.10;90.00;;;;;;4964679;28;20066;-70
2021/12/16 12:29:42;;;;;;;10.30;6.00;;;12.10;90.10;;;;;;4955806;28;20597;-70
2021/12/16 12:32:25;;;;;;;24.63;13.15;;;12.10;89.90;;;;;;4956607;28;20105;-69
2021/12/16 12:34:58;;;;;;;12.82;6.95;;;12.00;89.60;;;;;;4976333;28;20112;-69
2021/12/16 12:37:28;;;;;;;15.65;8.95;;;12.00;88.80;;;;;;4957402;28;20046;-67
2021/12/16 12:40:19;;;;;;;17.65;9.60;;;11.80;89.30;;;;;;4973570;28;20027;-68
2021/12/16 12:42:48;;;;;;;12.05;7.05;;;11.70;89.60;;;;;;4956983;28;20054;-68
2021/12/16 12:45:16;;;;;;;7.93;5.22;;;11.60;90.00;;;;;;4954828;28;20494;-68
2021/12/16 12:47:45;;;;;;;8.20;4.43;;;11.60;90.40;;;;;;4961896;28;20034;-68
2021/12/16 12:50:21;;;;;;;9.10;4.32;;;11.60;90.60;;;;;;4955461;28;20214;-68
2021/12/16 12:52:51;;;;;;;10.73;5.50;;;11.70;90.70;;;;;;4949767;28;20043;-68
2021/12/16 12:55:22;;;;;;;9.98;6.05;;;11.80;90.60;;;;;;4975181;28;20038;-68
2021/12/16 12:57:48;;;;;;;12.60;6.32;;;11.80;90.60;;;;;;4973338;28;20043;-68
2021/12/16 13:00:38;;;;;;;9.68;4.03;;;12.00;90.00;;;;;;4960763;28;20038;-70
2021/12/16 13:03:10;;;;;;;5.57;3.22;;;12.10;90.00;;;;;;4955329;28;20128;-68
2021/12/16 13:05:36;;;;;;;6.90;4.00;;;12.20;88.50;;;;;;4955721;28;20046;-68
2021/12/16 13:08:12;;;;;;;6.78;3.72;;;12.30;87.70;;;;;;4956198;28;20117;-68
2021/12/16 13:10:48;;;;;;;3.92;2.75;;;12.30;86.70;;;;;;4955719;28;20038;-68
2021/12/16 13:13:42;;;;;;;;;;;12.10;86.80;;;;;;4957876;28;20049;-68
2021/12/16 13:16:20;;;;;;;6.55;3.35;;;12.10;87.20;;;;;;4953502;28;19918;-68
2021/12/16 13:25:04;;;;;;;5.97;3.30;;;11.60;88.00;;;;;;4956787;28;20640;-68
2021/12/16 13:27:33;;;;;;;4.70;3.00;;;11.50;88.90;;;;;;4955246;28;20023;-68
2021/12/16 13:33:01;;;;;;;5.95;2.55;;;11.30;88.10;;;;;;4947555;28;20131;-67
2021/12/16 13:35:35;;;;;;;4.18;2.38;;;11.20;88.20;;;;;;4955277;28;20043;-67
2021/12/16 13:38:07;;;;;;;3.72;2.20;;;11.10;88.90;;;;;;4967463;28;20038;-67
2021/12/16 13:40:37;;;;;;;3.83;2.45;;;11.10;89.50;;;;;;4967504;28;20045;-67
2021/12/16 13:43:13;;;;;;;5.22;2.67;;;11.00;89.60;;;;;;4942562;28;20027;-68
2021/12/16 14:03:25;;;;;;;7.72;2.83;;;10.60;90.60;;;;;;4956801;28;20053;-68
2021/12/16 14:06:13;;;;;;;6.30;2.30;;;10.60;90.50;;;;;;4956743;28;20118;-68
2021/12/16 14:08:47;;;;;;;5.80;2.30;;;10.50;90.50;;;;;;4954366;28;20115;-67
2021/12/16 14:17:07;;;;;;;8.63;2.33;;;10.40;90.60;;;;;;4948618;28;20035;-68
2021/12/16 14:25:24;;;;;;;6.72;2.50;;;10.20;90.60;;;;;;4952718;28;20108;-68
2021/12/16 14:31:11;;;;;;;7.47;2.45;;;10.00;90.80;;;;;;4976582;28;20041;-69
2021/12/16 14:42:07;;;;;;;18.45;10.80;;;9.60;91.70;;;;;;4972708;28;20043;-70
2021/12/16 14:50:15;;;;;;;3.80;2.25;;;9.40;91.90;;;;;;4957708;28;20041;-69
2021/12/16 14:52:41;;;;;;;4.65;2.45;;;9.30;91.90;;;;;;4949409;28;20878;-68
2021/12/16 14:55:12;;;;;;;6.45;2.95;;;9.20;92.00;;;;;;4958869;28;20113;-68
2021/12/16 14:57:45;;;;;;;5.18;2.85;;;9.10;91.90;;;;;;4960572;28;20215;-69
2021/12/16 15:00:19;;;;;;;7.05;3.17;;;9.10;92.10;;;;;;4962927;28;20403;-69
2021/12/16 15:02:48;;;;;;;5.15;2.88;;;9.00;92.20;;;;;;4951042;28;20043;-69
2021/12/16 15:05:45;;;;;;;3.95;2.58;;;9.00;92.20;;;;;;4967854;28;20121;-69
2021/12/16 15:08:27;;;;;;;5.38;2.88;;;8.90;92.20;;;;;;4952357;28;20606;-69
2021/12/16 15:10:55;;;;;;;7.30;2.50;;;8.80;92.30;;;;;;4950382;28;20040;-69
2021/12/16 15:13:32;;;;;;;4.18;2.55;;;8.70;92.50;;;;;;4970211;28;20026;-69
2021/12/16 15:35:52;;;;;;;7.38;2.72;;;8.20;92.90;;;;;;4954570;28;20037;-69
2021/12/16 15:37:38;;;;;;;5.60;2.97;;;8.10;93.00;;;;;;4950590;28;20077;-69
2021/12/16 15:42:57;;;;;;;5.00;2.45;;;8.10;93.10;;;;;;4938980;28;20074;-70
2021/12/16 15:45:27;;;;;;;6.00;3.05;;;8.00;93.00;;;;;;4951083;28;20051;-70
2021/12/16 15:48:05;;;;;;;5.55;2.83;;;8.00;93.00;;;;;;4957322;28;20504;-69
2021/12/16 15:50:38;;;;;;;4.47;2.30;;;7.90;93.20;;;;;;4957167;28;20073;-69
2021/12/16 15:53:08;;;;;;;3.47;2.20;;;7.80;93.30;;;;;;4963812;28;20027;-69
2021/12/16 15:55:47;;;;;;;6.28;2.60;;;7.80;93.30;;;;;;4949260;28;20381;-69
2021/12/16 15:58:20;;;;;;;7.70;4.05;;;7.80;93.40;;;;;;4948650;28;20030;-70
2021/12/16 16:00:50;;;;;;;5.95;2.65;;;7.80;93.40;;;;;;4955067;28;20098;-69
2021/12/16 16:03:18;;;;;;;4.68;2.10;;;7.70;93.40;;;;;;4947338;28;20567;-68
2021/12/16 16:05:54;;;;;;;3.70;2.33;;;7.70;93.50;;;;;;4947308;28;20035;-68
2021/12/16 16:08:22;;;;;;;7.68;2.53;;;7.70;93.50;;;;;;4945274;28;20177;-67
2021/12/16 16:10:54;;;;;;;4.93;2.40;;;7.70;93.50;;;;;;4946759;28;20031;-67
2021/12/16 16:13:25;;;;;;;6.05;2.70;;;7.60;93.40;;;;;;4952320;28;20105;-68
2021/12/16 16:15:54;;;;;;;5.03;2.63;;;7.60;93.50;;;;;;4951651;28;20039;-69
2021/12/16 16:18:43;;;;;;;4.15;2.70;;;7.60;93.40;;;;;;4946614;28;20035;-68
2021/12/16 16:21:19;;;;;;;9.10;3.35;;;7.50;93.30;;;;;;4954204;28;20039;-70
2021/12/16 16:23:53;;;;;;;6.75;2.55;;;7.50;93.20;;;;;;4948777;28;20043;-66
2021/12/16 16:26:20;;;;;;;8.82;3.15;;;7.40;93.20;;;;;;4928139;28;20039;-66
2021/12/16 16:28:50;;;;;;;5.05;2.97;;;7.40;93.10;;;;;;4952866;28;20063;-66
2021/12/16 16:31:20;;;;;;;6.40;2.47;;;7.30;93.00;;;;;;4947539;28;20039;-66
2021/12/16 16:33:47;;;;;;;7.60;2.83;;;7.30;93.20;;;;;;4950263;28;20530;-67
2021/12/16 16:36:16;;;;;;;4.97;2.72;;;7.20;93.40;;;;;;4959348;28;20824;-66
2021/12/16 16:38:44;;;;;;;8.48;3.33;;;7.20;93.60;;;;;;4958146;28;20041;-66